sensor_id;sensor_type;location;lat;lon;timestamp;P1;durP1;ratioP1;P2;durP2;ratioP2
5237;SDS011;2639;49.700;7.962;2023-06-04T05:42:37;1999.90;;;999.90;;
5237;SDS011;2639;49.700;7.962;2023-06-04T05:43:40;1999.90;;;999.90;;
5237;SDS011;2639;49.700;7.962;2023-06-04T05:44:48;1999.90;;;999.90;;
5237;SDS011;2639;49.700;7.962;2023-06-04T05:45:55;1999.90;;;999.90;;
5237;SDS011;2639;49.700;7.962;2023-06-04T05:46:58;1999.90;;;999.90;;
5237;SDS011;2639;49.700;7.962;2023-06-04T05:48:01;1999.90;;;999.90;;
5237;SDS011;2639;49.700;7.962;2023-06-04T05:49:04;1999.90;;;999.90;;
5237;SDS011;2639;49.700;7.962;2023-06-04T05:50:07;1999.90;;;999.90;;
5237;SDS011;2639;49.700;7.962;2023-06-04T05:51:10;1999.90;;;999.90;;
5237;SDS011;2639;49.700;7.962;2023-06-04T05:52:13;1999.90;;;999.90;;
5237;SDS011;2639;49.700;7.962;2023-06-04T05:53:17;1999.90;;;999.90;;
5237;SDS011;2639;49.700;7.962;2023-06-04T05:54:22;1999.90;;;999.90;;
5237;SDS011;2639;49.700;7.962;2023-06-04T05:55:28;1999.90;;;999.90;;
5237;SDS011;2639;49.700;7.962;2023-06-04T05:56:32;1999.90;;;999.90;;
5237;SDS011;2639;49.700;7.962;2023-06-04T05:57:34;1999.90;;;999.90;;
5237;SDS011;2639;49.700;7.962;2023-06-04T05:58:41;1999.90;;;999.90;;
5237;SDS011;2639;49.700;7.962;2023-06-04T06:00:00;1999.90;;;999.90;;
5237;SDS011;2639;49.700;7.962;2023-06-04T06:01:02;1999.90;;;999.90;;
5237;SDS011;2639;49.700;7.962;2023-06-04T06:02:06;1999.90;;;999.90;;
5237;SDS011;2639;49.700;7.962;2023-06-04T06:03:09;1999.90;;;999.90;;
5237;SDS011;2639;49.700;7.962;2023-06-04T06:04:18;1999.90;;;999.90;;
5237;SDS011;2639;49.700;7.962;2023-06-04T06:05:20;1999.90;;;999.90;;
5237;SDS011;2639;49.700;7.962;2023-06-04T06:06:24;1999.90;;;999.90;;
5237;SDS011;2639;49.700;7.962;2023-06-04T06:07:26;1999.90;;;999.90;;
5237;SDS011;2639;49.700;7.962;2023-06-04T06:08:29;1999.90;;;999.90;;
5237;SDS011;2639;49.700;7.962;2023-06-04T06:09:31;1999.90;;;999.90;;
5237;SDS011;2639;49.700;7.962;2023-06-04T06:10:34;1999.90;;;999.90;;
5237;SDS011;2639;49.700;7.962;2023-06-04T06:11:37;1999.90;;;999.90;;
5237;SDS011;2639;49.700;7.962;2023-06-04T06:12:41;1999.90;;;999.90;;
5237;SDS011;2639;49.700;7.962;2023-06-04T06:13:43;1999.90;;;999.90;;
5237;SDS011;2639;49.700;7.962;2023-06-04T06:14:48;1999.90;;;999.90;;
5237;SDS011;2639;49.700;7.962;2023-06-04T06:15:50;1999.90;;;999.90;;
5237;SDS011;2639;49.700;7.962;2023-06-04T06:16:54;1999.90;;;999.90;;
5237;SDS011;2639;49.700;7.962;2023-06-04T06:17:56;1999.90;;;999.90;;
5237;SDS011;2639;49.700;7.962;2023-06-04T06:19:00;1999.90;;;999.90;;
5237;SDS011;2639;49.700;7.962;2023-06-04T06:20:02;1999.90;;;999.90;;
5237;SDS011;2639;49.700;7.962;2023-06-04T06:21:07;1999.90;;;999.90;;
5237;SDS011;2639;49.700;7.962;2023-06-04T06:22:10;1999.90;;;999.90;;
5237;SDS011;2639;49.700;7.962;2023-06-04T06:23:14;1999.90;;;999.90;;
5237;SDS011;2639;49.700;7.962;2023-06-04T06:24:19;1999.90;;;999.90;;
5237;SDS011;2639;49.700;7.962;2023-06-04T06:25:22;1999.90;;;999.90;;
5237;SDS011;2639;49.700;7.962;2023-06-04T06:26:34;1999.90;;;999.90;;
5237;SDS011;2639;49.700;7.962;2023-06-04T06:27:38;1999.90;;;999.90;;
5237;SDS011;2639;49.700;7.962;2023-06-04T06:28:41;1999.90;;;999.90;;
5237;SDS011;2639;49.700;7.962;2023-06-04T06:29:46;1999.90;;;999.90;;
5237;SDS011;2639;49.700;7.962;2023-06-04T06:30:48;1999.90;;;999.90;;
5237;SDS011;2639;49.700;7.962;2023-06-04T06:31:51;1999.90;;;999.90;;
5237;SDS011;2639;49.700;7.962;2023-06-04T06:32:53;1999.90;;;999.90;;
5237;SDS011;2639;49.700;7.962;2023-06-04T06:33:57;1999.90;;;999.90;;
5237;SDS011;2639;49.700;7.962;2023-06-04T06:34:59;1999.90;;;999.90;;
5237;SDS011;2639;49.700;7.962;2023-06-04T06:36:02;1999.90;;;999.90;;
5237;SDS011;2639;49.700;7.962;2023-06-04T06:37:06;1999.90;;;999.90;;
5237;SDS011;2639;49.700;7.962;2023-06-04T06:38:09;1999.90;;;999.90;;
5237;SDS011;2639;49.700;7.962;2023-06-04T06:39:11;1999.90;;;999.90;;
5237;SDS011;2639;49.700;7.962;2023-06-04T06:40:15;1999.90;;;999.90;;
5237;SDS011;2639;49.700;7.962;2023-06-04T06:43:07;1999.90;;;999.90;;
5237;SDS011;2639;49.700;7.962;2023-06-04T06:44:12;1999.90;;;999.90;;
5237;SDS011;2639;49.700;7.962;2023-06-04T06:45:15;1999.90;;;999.90;;
5237;SDS011;2639;49.700;7.962;2023-06-04T06:46:18;1999.90;;;999.90;;
5237;SDS011;2639;49.700;7.962;2023-06-04T06:47:20;1999.90;;;999.90;;
5237;SDS011;2639;49.700;7.962;2023-06-04T06:48:24;1999.90;;;999.90;;
5237;SDS011;2639;49.700;7.962;2023-06-04T06:49:26;1999.90;;;999.90;;
5237;SDS011;2639;49.700;7.962;2023-06-04T06:50:29;1999.90;;;909.90;;
5237;SDS011;2639;49.700;7.962;2023-06-04T06:51:32;1999.90;;;972.83;;
5237;SDS011;2639;49.700;7.962;2023-06-04T06:52:35;1999.90;;;999.90;;
5237;SDS011;2639;49.700;7.962;2023-06-04T06:53:38;1999.90;;;999.90;;
5237;SDS011;2639;49.700;7.962;2023-06-04T06:54:41;1696.85;;;664.05;;
5237;SDS011;2639;49.700;7.962;2023-06-04T06:55:44;1999.90;;;999.90;;
5237;SDS011;2639;49.700;7.962;2023-06-04T06:56:46;1999.90;;;999.90;;
5237;SDS011;2639;49.700;7.962;2023-06-04T06:57:50;1999.90;;;999.90;;
5237;SDS011;2639;49.700;7.962;2023-06-04T06:58:52;1999.90;;;999.90;;
5237;SDS011;2639;49.700;7.962;2023-06-04T06:59:56;1999.90;;;999.90;;
5237;SDS011;2639;49.700;7.962;2023-06-04T07:00:59;1999.90;;;999.90;;
5237;SDS011;2639;49.700;7.962;2023-06-04T07:02:02;1999.90;;;999.90;;
5237;SDS011;2639;49.700;7.962;2023-06-04T07:03:05;1999.90;;;999.90;;
5237;SDS011;2639;49.700;7.962;2023-06-04T07:04:09;1999.90;;;999.90;;
5237;SDS011;2639;49.700;7.962;2023-06-04T07:05:13;1999.90;;;999.90;;
5237;SDS011;2639;49.700;7.962;2023-06-04T07:06:18;1999.90;;;999.90;;
5237;SDS011;2639;49.700;7.962;2023-06-04T07:07:22;1999.90;;;999.90;;
5237;SDS011;2639;49.700;7.962;2023-06-04T07:08:24;1999.90;;;999.90;;
5237;SDS011;2639;49.700;7.962;2023-06-04T07:09:27;1999.90;;;999.90;;
5237;SDS011;2639;49.700;7.962;2023-06-04T07:10:30;1999.90;;;999.90;;
5237;SDS011;2639;49.700;7.962;2023-06-04T07:11:33;1999.90;;;925.03;;
5237;SDS011;2639;49.700;7.962;2023-06-04T07:12:35;1999.90;;;999.90;;
5237;SDS011;2639;49.700;7.962;2023-06-04T07:13:38;1999.90;;;999.90;;
5237;SDS011;2639;49.700;7.962;2023-06-04T07:14:41;1999.90;;;999.90;;
5237;SDS011;2639;49.700;7.962;2023-06-04T07:15:46;1999.90;;;999.90;;
5237;SDS011;2639;49.700;7.962;2023-06-04T07:16:51;1999.90;;;999.90;;
5237;SDS011;2639;49.700;7.962;2023-06-04T07:17:54;1999.90;;;999.90;;
5237;SDS011;2639;49.700;7.962;2023-06-04T07:18:57;1999.90;;;999.90;;
5237;SDS011;2639;49.700;7.962;2023-06-04T07:20:00;1999.90;;;999.90;;
5237;SDS011;2639;49.700;7.962;2023-06-04T07:21:05;1999.90;;;999.90;;
5237;SDS011;2639;49.700;7.962;2023-06-04T07:22:08;1999.90;;;999.90;;
5237;SDS011;2639;49.700;7.962;2023-06-04T07:23:12;1948.55;;;999.90;;
5237;SDS011;2639;49.700;7.962;2023-06-04T07:24:14;1133.43;;;987.78;;
5237;SDS011;2639;49.700;7.962;2023-06-04T07:25:17;1999.90;;;999.90;;
5237;SDS011;2639;49.700;7.962;2023-06-04T07:26:21;811.47;;;750.25;;
5237;SDS011;2639;49.700;7.962;2023-06-04T07:27:24;989.13;;;892.05;;
5237;SDS011;2639;49.700;7.962;2023-06-04T07:28:27;1109.85;;;982.92;;
5237;SDS011;2639;49.700;7.962;2023-06-04T07:29:31;1591.45;;;999.90;;
5237;SDS011;2639;49.700;7.962;2023-06-04T07:30:33;457.75;;;431.35;;
5237;SDS011;2639;49.700;7.962;2023-06-04T07:31:38;599.13;;;562.13;;
5237;SDS011;2639;49.700;7.962;2023-06-04T07:32:45;470.23;;;437.08;;
5237;SDS011;2639;49.700;7.962;2023-06-04T07:33:48;577.38;;;542.55;;
5237;SDS011;2639;49.700;7.962;2023-06-04T07:34:51;264.13;;;244.85;;
5237;SDS011;2639;49.700;7.962;2023-06-04T07:35:54;341.05;;;322.40;;
5237;SDS011;2639;49.700;7.962;2023-06-04T07:37:04;598.50;;;562.90;;
5237;SDS011;2639;49.700;7.962;2023-06-04T07:38:06;377.73;;;353.90;;
5237;SDS011;2639;49.700;7.962;2023-06-04T07:39:10;353.15;;;332.00;;
5237;SDS011;2639;49.700;7.962;2023-06-04T07:40:12;238.07;;;226.15;;
5237;SDS011;2639;49.700;7.962;2023-06-04T07:41:15;305.30;;;287.92;;
5237;SDS011;2639;49.700;7.962;2023-06-04T07:42:17;388.88;;;358.30;;
5237;SDS011;2639;49.700;7.962;2023-06-04T07:43:21;547.70;;;515.10;;
5237;SDS011;2639;49.700;7.962;2023-06-04T07:44:23;403.70;;;381.50;;
5237;SDS011;2639;49.700;7.962;2023-06-04T07:45:27;298.13;;;283.45;;
5237;SDS011;2639;49.700;7.962;2023-06-04T07:46:36;423.97;;;396.50;;
5237;SDS011;2639;49.700;7.962;2023-06-04T07:47:40;348.30;;;328.17;;
5237;SDS011;2639;49.700;7.962;2023-06-04T07:48:43;295.83;;;280.92;;
5237;SDS011;2639;49.700;7.962;2023-06-04T07:49:45;163.68;;;155.82;;
5237;SDS011;2639;49.700;7.962;2023-06-04T07:51:02;232.95;;;220.32;;
5237;SDS011;2639;49.700;7.962;2023-06-04T07:52:06;288.55;;;267.75;;
5237;SDS011;2639;49.700;7.962;2023-06-04T07:53:08;792.33;;;734.78;;
5237;SDS011;2639;49.700;7.962;2023-06-04T07:54:12;739.75;;;688.35;;
5237;SDS011;2639;49.700;7.962;2023-06-04T07:55:15;456.48;;;430.67;;
5237;SDS011;2639;49.700;7.962;2023-06-04T07:56:19;818.17;;;752.28;;
5237;SDS011;2639;49.700;7.962;2023-06-04T07:57:21;797.33;;;742.20;;
5237;SDS011;2639;49.700;7.962;2023-06-04T07:58:24;318.00;;;301.58;;
5237;SDS011;2639;49.700;7.962;2023-06-04T07:59:27;798.58;;;740.40;;
5237;SDS011;2639;49.700;7.962;2023-06-04T08:00:30;1012.30;;;915.33;;
5237;SDS011;2639;49.700;7.962;2023-06-04T08:01:34;771.50;;;717.38;;
5237;SDS011;2639;49.700;7.962;2023-06-04T08:02:39;483.85;;;455.70;;
5237;SDS011;2639;49.700;7.962;2023-06-04T08:03:42;844.80;;;773.33;;
5237;SDS011;2639;49.700;7.962;2023-06-04T08:04:45;1642.75;;;999.90;;
5237;SDS011;2639;49.700;7.962;2023-06-04T08:05:49;968.50;;;871.55;;
5237;SDS011;2639;49.700;7.962;2023-06-04T08:06:51;932.77;;;848.53;;
5237;SDS011;2639;49.700;7.962;2023-06-04T08:07:54;464.52;;;432.85;;
5237;SDS011;2639;49.700;7.962;2023-06-04T08:08:57;989.55;;;898.88;;
5237;SDS011;2639;49.700;7.962;2023-06-04T08:10:00;1087.03;;;958.60;;
5237;SDS011;2639;49.700;7.962;2023-06-04T08:11:02;1178.40;;;987.33;;
5237;SDS011;2639;49.700;7.962;2023-06-04T08:12:06;931.35;;;816.72;;
5237;SDS011;2639;49.700;7.962;2023-06-04T08:13:11;574.75;;;537.35;;
5237;SDS011;2639;49.700;7.962;2023-06-04T08:14:15;1313.00;;;999.90;;
5237;SDS011;2639;49.700;7.962;2023-06-04T08:15:22;937.50;;;844.93;;
5237;SDS011;2639;49.700;7.962;2023-06-04T08:16:31;1150.10;;;978.30;;
5237;SDS011;2639;49.700;7.962;2023-06-04T08:17:34;1999.90;;;999.90;;
5237;SDS011;2639;49.700;7.962;2023-06-04T08:18:41;1965.83;;;999.90;;
5237;SDS011;2639;49.700;7.962;2023-06-04T08:19:45;961.03;;;871.30;;
5237;SDS011;2639;49.700;7.962;2023-06-04T08:20:49;1000.90;;;899.70;;
5237;SDS011;2639;49.700;7.962;2023-06-04T08:21:53;1106.50;;;979.27;;
5237;SDS011;2639;49.700;7.962;2023-06-04T08:23:00;1001.23;;;915.17;;
5237;SDS011;2639;49.700;7.962;2023-06-04T08:24:03;376.33;;;355.17;;
5237;SDS011;2639;49.700;7.962;2023-06-04T08:25:08;606.10;;;559.63;;
5237;SDS011;2639;49.700;7.962;2023-06-04T08:26:12;775.93;;;716.70;;
5237;SDS011;2639;49.700;7.962;2023-06-04T08:27:17;579.73;;;533.20;;
5237;SDS011;2639;49.700;7.962;2023-06-04T08:28:24;697.38;;;650.30;;
5237;SDS011;2639;49.700;7.962;2023-06-04T08:29:29;956.10;;;860.70;;
5237;SDS011;2639;49.700;7.962;2023-06-04T08:30:35;1096.43;;;975.10;;
5237;SDS011;2639;49.700;7.962;2023-06-04T08:31:40;850.10;;;709.40;;
5237;SDS011;2639;49.700;7.962;2023-06-04T08:32:44;281.27;;;266.70;;
5237;SDS011;2639;49.700;7.962;2023-06-04T08:33:51;1427.23;;;999.90;;
5237;SDS011;2639;49.700;7.962;2023-06-04T08:35:19;683.43;;;632.90;;
5237;SDS011;2639;49.700;7.962;2023-06-04T08:36:22;385.37;;;361.97;;
5237;SDS011;2639;49.700;7.962;2023-06-04T08:37:25;897.77;;;821.40;;
5237;SDS011;2639;49.700;7.962;2023-06-04T08:38:28;471.67;;;442.87;;
5237;SDS011;2639;49.700;7.962;2023-06-04T08:39:30;923.23;;;842.60;;
5237;SDS011;2639;49.700;7.962;2023-06-04T08:40:34;878.37;;;801.07;;
5237;SDS011;2639;49.700;7.962;2023-06-04T08:41:38;991.70;;;901.33;;
5237;SDS011;2639;49.700;7.962;2023-06-04T08:42:46;836.07;;;770.13;;
5237;SDS011;2639;49.700;7.962;2023-06-04T08:43:53;352.70;;;331.47;;
5237;SDS011;2639;49.700;7.962;2023-06-04T08:45:01;286.50;;;271.77;;
5237;SDS011;2639;49.700;7.962;2023-06-04T08:46:05;546.33;;;511.90;;
5237;SDS011;2639;49.700;7.962;2023-06-04T08:47:10;231.87;;;221.23;;
5237;SDS011;2639;49.700;7.962;2023-06-04T08:48:17;389.80;;;371.33;;
5237;SDS011;2639;49.700;7.962;2023-06-04T08:49:26;695.33;;;642.37;;
5237;SDS011;2639;49.700;7.962;2023-06-04T08:50:32;217.87;;;207.87;;
5237;SDS011;2639;49.700;7.962;2023-06-04T08:51:36;669.80;;;627.40;;
5237;SDS011;2639;49.700;7.962;2023-06-04T08:52:39;258.60;;;246.40;;
5237;SDS011;2639;49.700;7.962;2023-06-04T08:53:42;582.47;;;547.33;;
5237;SDS011;2639;49.700;7.962;2023-06-04T08:54:45;341.07;;;319.53;;
5237;SDS011;2639;49.700;7.962;2023-06-04T08:55:51;585.20;;;524.87;;
5237;SDS011;2639;49.700;7.962;2023-06-04T08:56:56;363.90;;;340.97;;
5237;SDS011;2639;49.700;7.962;2023-06-04T08:57:59;568.50;;;528.37;;
5237;SDS011;2639;49.700;7.962;2023-06-04T08:59:04;267.20;;;254.03;;
5237;SDS011;2639;49.700;7.962;2023-06-04T09:00:09;343.90;;;326.67;;
5237;SDS011;2639;49.700;7.962;2023-06-04T09:01:12;470.03;;;442.53;;
5237;SDS011;2639;49.700;7.962;2023-06-04T09:02:17;366.53;;;346.20;;
5237;SDS011;2639;49.700;7.962;2023-06-04T09:03:19;288.20;;;273.90;;
5237;SDS011;2639;49.700;7.962;2023-06-04T09:04:27;327.30;;;310.87;;
5237;SDS011;2639;49.700;7.962;2023-06-04T09:05:31;468.23;;;441.10;;
5237;SDS011;2639;49.700;7.962;2023-06-04T09:06:35;209.67;;;199.73;;
5237;SDS011;2639;49.700;7.962;2023-06-04T09:07:39;453.43;;;428.87;;
5237;SDS011;2639;49.700;7.962;2023-06-04T09:08:44;244.73;;;232.10;;
5237;SDS011;2639;49.700;7.962;2023-06-04T09:09:57;278.50;;;265.60;;
5237;SDS011;2639;49.700;7.962;2023-06-04T09:11:14;295.17;;;280.17;;
5237;SDS011;2639;49.700;7.962;2023-06-04T09:12:21;368.70;;;350.33;;
5237;SDS011;2639;49.700;7.962;2023-06-04T09:13:27;185.37;;;175.50;;
5237;SDS011;2639;49.700;7.962;2023-06-04T09:14:34;390.87;;;371.83;;
5237;SDS011;2639;49.700;7.962;2023-06-04T09:15:36;293.50;;;273.43;;
5237;SDS011;2639;49.700;7.962;2023-06-04T09:16:43;386.70;;;368.60;;
5237;SDS011;2639;49.700;7.962;2023-06-04T09:17:46;420.20;;;395.73;;
5237;SDS011;2639;49.700;7.962;2023-06-04T09:18:49;244.20;;;232.87;;
5237;SDS011;2639;49.700;7.962;2023-06-04T09:19:54;312.37;;;297.77;;
5237;SDS011;2639;49.700;7.962;2023-06-04T09:21:01;416.17;;;393.53;;
5237;SDS011;2639;49.700;7.962;2023-06-04T09:22:04;505.73;;;480.10;;
5237;SDS011;2639;49.700;7.962;2023-06-04T09:23:13;335.20;;;315.73;;
5237;SDS011;2639;49.700;7.962;2023-06-04T09:24:16;372.13;;;352.63;;
5237;SDS011;2639;49.700;7.962;2023-06-04T09:25:20;300.87;;;287.00;;
5237;SDS011;2639;49.700;7.962;2023-06-04T09:26:24;570.57;;;539.70;;
5237;SDS011;2639;49.700;7.962;2023-06-04T09:27:27;414.47;;;393.80;;
5237;SDS011;2639;49.700;7.962;2023-06-04T09:28:39;400.20;;;381.30;;
5237;SDS011;2639;49.700;7.962;2023-06-04T09:29:49;278.63;;;265.50;;
5237;SDS011;2639;49.700;7.962;2023-06-04T09:30:53;354.50;;;337.33;;
5237;SDS011;2639;49.700;7.962;2023-06-04T09:31:57;351.37;;;334.67;;
5237;SDS011;2639;49.700;7.962;2023-06-04T09:33:05;257.20;;;244.87;;
5237;SDS011;2639;49.700;7.962;2023-06-04T09:34:09;438.97;;;417.33;;
5237;SDS011;2639;49.700;7.962;2023-06-04T09:35:15;317.70;;;302.60;;
5237;SDS011;2639;49.700;7.962;2023-06-04T09:36:19;389.33;;;370.97;;
5237;SDS011;2639;49.700;7.962;2023-06-04T09:37:22;422.20;;;402.83;;
5237;SDS011;2639;49.700;7.962;2023-06-04T09:38:32;387.20;;;367.57;;
5237;SDS011;2639;49.700;7.962;2023-06-04T09:39:36;438.63;;;416.57;;
5237;SDS011;2639;49.700;7.962;2023-06-04T09:40:39;421.70;;;399.77;;
5237;SDS011;2639;49.700;7.962;2023-06-04T09:41:42;436.53;;;415.57;;
5237;SDS011;2639;49.700;7.962;2023-06-04T09:42:46;356.03;;;339.30;;
5237;SDS011;2639;49.700;7.962;2023-06-04T09:43:59;555.53;;;524.77;;
5237;SDS011;2639;49.700;7.962;2023-06-04T09:45:05;262.40;;;250.20;;
5237;SDS011;2639;49.700;7.962;2023-06-04T09:46:09;274.70;;;261.73;;
5237;SDS011;2639;49.700;7.962;2023-06-04T09:47:13;250.43;;;238.70;;
5237;SDS011;2639;49.700;7.962;2023-06-04T09:48:19;393.40;;;374.63;;
5237;SDS011;2639;49.700;7.962;2023-06-04T09:49:22;285.90;;;272.27;;
5237;SDS011;2639;49.700;7.962;2023-06-04T09:50:27;417.57;;;390.20;;
5237;SDS011;2639;49.700;7.962;2023-06-04T09:51:33;311.97;;;295.63;;
5237;SDS011;2639;49.700;7.962;2023-06-04T09:52:38;357.13;;;338.13;;
5237;SDS011;2639;49.700;7.962;2023-06-04T09:53:41;279.03;;;264.97;;
5237;SDS011;2639;49.700;7.962;2023-06-04T09:54:44;369.10;;;351.67;;
5237;SDS011;2639;49.700;7.962;2023-06-04T09:55:55;303.37;;;287.40;;
5237;SDS011;2639;49.700;7.962;2023-06-04T09:56:59;427.30;;;404.97;;
5237;SDS011;2639;49.700;7.962;2023-06-04T09:58:03;435.53;;;413.17;;
5237;SDS011;2639;49.700;7.962;2023-06-04T09:59:08;391.73;;;369.90;;
5237;SDS011;2639;49.700;7.962;2023-06-04T10:00:12;276.57;;;263.13;;
5237;SDS011;2639;49.700;7.962;2023-06-04T10:01:19;288.47;;;274.63;;
5237;SDS011;2639;49.700;7.962;2023-06-04T10:02:25;474.10;;;448.23;;
5237;SDS011;2639;49.700;7.962;2023-06-04T10:03:31;833.13;;;756.00;;
5237;SDS011;2639;49.700;7.962;2023-06-04T10:04:37;404.57;;;383.20;;
5237;SDS011;2639;49.700;7.962;2023-06-04T10:05:45;369.53;;;352.03;;
5237;SDS011;2639;49.700;7.962;2023-06-04T10:06:48;508.13;;;481.60;;
5237;SDS011;2639;49.700;7.962;2023-06-04T10:09:44;315.90;;;301.00;;
5237;SDS011;2639;49.700;7.962;2023-06-04T10:10:46;269.50;;;256.37;;
5237;SDS011;2639;49.700;7.962;2023-06-04T10:11:52;264.63;;;251.57;;
5237;SDS011;2639;49.700;7.962;2023-06-04T10:13:05;463.77;;;438.40;;
5237;SDS011;2639;49.700;7.962;2023-06-04T10:14:13;337.97;;;320.10;;
5237;SDS011;2639;49.700;7.962;2023-06-04T10:15:22;499.47;;;472.17;;
5237;SDS011;2639;49.700;7.962;2023-06-04T10:16:25;351.10;;;333.40;;
5237;SDS011;2639;49.700;7.962;2023-06-04T10:17:35;550.20;;;520.50;;
5237;SDS011;2639;49.700;7.962;2023-06-04T10:18:39;208.93;;;197.93;;
5237;SDS011;2639;49.700;7.962;2023-06-04T10:19:43;452.70;;;425.60;;
5237;SDS011;2639;49.700;7.962;2023-06-04T10:20:48;622.87;;;583.97;;
5237;SDS011;2639;49.700;7.962;2023-06-04T10:21:52;456.73;;;432.07;;
5237;SDS011;2639;49.700;7.962;2023-06-04T10:22:55;405.57;;;386.47;;
5237;SDS011;2639;49.700;7.962;2023-06-04T10:23:58;730.83;;;686.47;;
5237;SDS011;2639;49.700;7.962;2023-06-04T10:25:02;502.60;;;476.10;;
5237;SDS011;2639;49.700;7.962;2023-06-04T10:26:05;526.43;;;496.17;;
5237;SDS011;2639;49.700;7.962;2023-06-04T10:27:08;608.83;;;567.27;;
5237;SDS011;2639;49.700;7.962;2023-06-04T10:28:16;645.33;;;607.73;;
5237;SDS011;2639;49.700;7.962;2023-06-04T10:29:21;408.23;;;387.23;;
5237;SDS011;2639;49.700;7.962;2023-06-04T10:30:25;483.50;;;459.50;;
5237;SDS011;2639;49.700;7.962;2023-06-04T10:31:28;605.90;;;573.10;;
5237;SDS011;2639;49.700;7.962;2023-06-04T10:32:30;411.57;;;390.90;;
5237;SDS011;2639;49.700;7.962;2023-06-04T10:33:34;699.77;;;655.90;;
5237;SDS011;2639;49.700;7.962;2023-06-04T10:34:37;835.97;;;779.30;;
5237;SDS011;2639;49.700;7.962;2023-06-04T10:35:40;1027.67;;;937.97;;
5237;SDS011;2639;49.700;7.962;2023-06-04T10:36:44;1091.20;;;958.83;;
5237;SDS011;2639;49.700;7.962;2023-06-04T10:37:48;805.27;;;755.10;;
5237;SDS011;2639;49.700;7.962;2023-06-04T10:38:53;521.57;;;495.77;;
5237;SDS011;2639;49.700;7.962;2023-06-04T10:39:57;607.97;;;576.10;;
5237;SDS011;2639;49.700;7.962;2023-06-04T10:41:00;678.70;;;638.27;;
5237;SDS011;2639;49.700;7.962;2023-06-04T10:42:16;502.63;;;477.03;;
5237;SDS011;2639;49.700;7.962;2023-06-04T10:43:19;451.50;;;428.80;;
5237;SDS011;2639;49.700;7.962;2023-06-04T10:44:23;688.93;;;649.67;;
5237;SDS011;2639;49.700;7.962;2023-06-04T10:45:28;907.97;;;839.97;;
5237;SDS011;2639;49.700;7.962;2023-06-04T10:46:38;748.57;;;703.07;;
5237;SDS011;2639;49.700;7.962;2023-06-04T10:47:42;521.10;;;493.80;;
5237;SDS011;2639;49.700;7.962;2023-06-04T10:48:46;1056.67;;;937.50;;
5237;SDS011;2639;49.700;7.962;2023-06-04T10:49:51;932.47;;;854.17;;
5237;SDS011;2639;49.700;7.962;2023-06-04T10:50:55;899.73;;;833.17;;
5237;SDS011;2639;49.700;7.962;2023-06-04T10:52:09;999.87;;;913.40;;
5237;SDS011;2639;49.700;7.962;2023-06-04T10:53:13;1006.30;;;928.57;;
5237;SDS011;2639;49.700;7.962;2023-06-04T10:54:22;934.03;;;862.50;;
5237;SDS011;2639;49.700;7.962;2023-06-04T10:55:27;743.30;;;698.20;;
5237;SDS011;2639;49.700;7.962;2023-06-04T10:56:30;830.07;;;770.83;;
5237;SDS011;2639;49.700;7.962;2023-06-04T10:57:35;912.57;;;842.73;;
5237;SDS011;2639;49.700;7.962;2023-06-04T10:58:38;850.10;;;797.13;;
5237;SDS011;2639;49.700;7.962;2023-06-04T10:59:41;971.90;;;900.93;;
5237;SDS011;2639;49.700;7.962;2023-06-04T11:00:54;748.93;;;705.30;;
5237;SDS011;2639;49.700;7.962;2023-06-04T11:02:04;768.03;;;721.20;;
5237;SDS011;2639;49.700;7.962;2023-06-04T11:03:08;782.67;;;736.13;;
5237;SDS011;2639;49.700;7.962;2023-06-04T11:04:18;1862.07;;;999.90;;
5237;SDS011;2639;49.700;7.962;2023-06-04T11:05:22;1041.10;;;959.67;;
5237;SDS011;2639;49.700;7.962;2023-06-04T11:06:35;912.73;;;849.70;;
5237;SDS011;2639;49.700;7.962;2023-06-04T11:07:42;1047.57;;;950.27;;
5237;SDS011;2639;49.700;7.962;2023-06-04T11:08:47;993.07;;;920.00;;
5237;SDS011;2639;49.700;7.962;2023-06-04T11:09:51;550.37;;;520.07;;
5237;SDS011;2639;49.700;7.962;2023-06-04T11:10:54;875.27;;;817.53;;
5237;SDS011;2639;49.700;7.962;2023-06-04T11:11:57;580.73;;;550.13;;
5237;SDS011;2639;49.700;7.962;2023-06-04T11:13:03;864.27;;;807.07;;
5237;SDS011;2639;49.700;7.962;2023-06-04T11:14:07;923.23;;;859.53;;
5237;SDS011;2639;49.700;7.962;2023-06-04T11:15:10;1029.73;;;924.57;;
5237;SDS011;2639;49.700;7.962;2023-06-04T11:16:14;881.93;;;820.80;;
5237;SDS011;2639;49.700;7.962;2023-06-04T11:17:18;818.97;;;767.57;;
5237;SDS011;2639;49.700;7.962;2023-06-04T11:18:22;1497.20;;;999.90;;
5237;SDS011;2639;49.700;7.962;2023-06-04T11:19:30;956.07;;;886.47;;
5237;SDS011;2639;49.700;7.962;2023-06-04T11:20:37;946.17;;;876.57;;
5237;SDS011;2639;49.700;7.962;2023-06-04T11:21:40;906.03;;;842.70;;
5237;SDS011;2639;49.700;7.962;2023-06-04T11:22:44;814.90;;;763.40;;
5237;SDS011;2639;49.700;7.962;2023-06-04T11:23:54;772.40;;;724.33;;
5237;SDS011;2639;49.700;7.962;2023-06-04T11:25:01;903.03;;;834.00;;
5237;SDS011;2639;49.700;7.962;2023-06-04T11:26:04;895.90;;;834.20;;
5237;SDS011;2639;49.700;7.962;2023-06-04T11:27:07;830.40;;;777.67;;
5237;SDS011;2639;49.700;7.962;2023-06-04T11:28:25;972.07;;;899.03;;
5237;SDS011;2639;49.700;7.962;2023-06-04T11:29:28;987.77;;;915.83;;
5237;SDS011;2639;49.700;7.962;2023-06-04T11:30:31;982.40;;;904.50;;
5237;SDS011;2639;49.700;7.962;2023-06-04T11:31:40;955.10;;;887.93;;
5237;SDS011;2639;49.700;7.962;2023-06-04T11:32:44;1130.33;;;999.90;;
5237;SDS011;2639;49.700;7.962;2023-06-04T11:33:48;881.77;;;822.67;;
5237;SDS011;2639;49.700;7.962;2023-06-04T11:34:50;896.73;;;834.33;;
5237;SDS011;2639;49.700;7.962;2023-06-04T11:35:53;871.37;;;815.67;;
5237;SDS011;2639;49.700;7.962;2023-06-04T11:37:06;762.27;;;717.20;;
5237;SDS011;2639;49.700;7.962;2023-06-04T11:38:13;772.40;;;725.33;;
5237;SDS011;2639;49.700;7.962;2023-06-04T11:39:16;867.70;;;807.63;;
5237;SDS011;2639;49.700;7.962;2023-06-04T11:40:19;668.00;;;630.97;;
5237;SDS011;2639;49.700;7.962;2023-06-04T11:41:23;712.63;;;672.33;;
5237;SDS011;2639;49.700;7.962;2023-06-04T11:42:25;753.03;;;707.50;;
5237;SDS011;2639;49.700;7.962;2023-06-04T11:43:29;909.90;;;844.13;;
5237;SDS011;2639;49.700;7.962;2023-06-04T11:44:32;768.97;;;722.50;;
5237;SDS011;2639;49.700;7.962;2023-06-04T11:45:35;1013.37;;;935.77;;
5237;SDS011;2639;49.700;7.962;2023-06-04T11:46:39;943.83;;;875.17;;
5237;SDS011;2639;49.700;7.962;2023-06-04T11:47:44;996.07;;;920.10;;
5237;SDS011;2639;49.700;7.962;2023-06-04T11:48:49;847.00;;;790.77;;
5237;SDS011;2639;49.700;7.962;2023-06-04T11:49:54;948.80;;;881.17;;
5237;SDS011;2639;49.700;7.962;2023-06-04T11:51:04;769.83;;;723.60;;
5237;SDS011;2639;49.700;7.962;2023-06-04T11:52:09;791.50;;;740.70;;
5237;SDS011;2639;49.700;7.962;2023-06-04T11:53:15;1039.70;;;938.53;;
5237;SDS011;2639;49.700;7.962;2023-06-04T11:54:19;997.63;;;921.00;;
5237;SDS011;2639;49.700;7.962;2023-06-04T11:55:23;865.43;;;809.07;;
5237;SDS011;2639;49.700;7.962;2023-06-04T11:56:27;1022.57;;;940.73;;
5237;SDS011;2639;49.700;7.962;2023-06-04T11:57:30;1010.63;;;928.67;;
5237;SDS011;2639;49.700;7.962;2023-06-04T11:58:33;1018.93;;;940.13;;
5237;SDS011;2639;49.700;7.962;2023-06-04T11:59:36;902.00;;;841.53;;
5237;SDS011;2639;49.700;7.962;2023-06-04T12:00:39;995.00;;;916.97;;
5237;SDS011;2639;49.700;7.962;2023-06-04T12:01:43;845.00;;;790.30;;